Time;durP1;ratioP1;P1;durP2;ratioP2;P2;SDS_P1;SDS_P2;PMS_P1;PMS_P2;Temp;Humidity;BMP_temperature;BMP_pressure;BME280_temperature;BME280_humidity;BME280_pressure;Samples;Min_cycle;Max_cycle;Signal;HPM_P1;HPM_P2
2022/09/14 00:02:27;;;;;;;9.38;6.37;;;;;;;23.21;60.63;97982.09;2138713;83;20939;-83
2022/09/14 00:05:29;;;;;;;10.53;6.55;;;;;;;23.22;59.66;97977.16;2110755;83;21407;-82
2022/09/14 00:08:30;;;;;;;10.60;6.50;;;;;;;23.26;59.14;97973.87;2138626;83;20936;-82
2022/09/14 00:11:30;;;;;;;11.48;7.05;;;;;;;22.98;58.99;97974.45;2139181;83;20951;-81
2022/09/14 00:14:30;;;;;;;6.87;6.17;;;;;;;22.45;59.05;97961.55;2133339;83;20968;-82
2022/09/14 00:17:31;;;;;;;7.35;6.15;;;;;;;21.73;59.05;97957.51;2129742;84;21365;-82
2022/09/14 00:20:31;;;;;;;6.80;6.03;;;;;;;21.22;60.77;97962.92;2129954;84;20916;-81
2022/09/14 00:23:32;;;;;;;10.78;6.50;;;;;;;20.75;62.08;97966.73;2130057;84;20960;-81
2022/09/14 00:26:32;;;;;;;6.87;6.17;;;;;;;20.77;63.45;97960.44;2129761;84;21003;-81
2022/09/14 00:29:32;;;;;;;7.85;6.37;;;;;;;20.94;63.65;97961.06;2129898;84;20936;-83
2022/09/14 00:32:33;;;;;;;9.20;6.25;;;;;;;21.08;64.43;97960.45;2130173;84;20921;-83
2022/09/14 00:35:33;;;;;;;13.13;6.05;;;;;;;21.63;63.05;97958.37;2129843;84;20972;-83
2022/09/14 00:38:34;;;;;;;7.20;6.50;;;;;;;21.92;61.24;97960.16;2130427;84;20928;-83
2022/09/14 00:41:34;;;;;;;8.23;6.58;;;;;;;21.97;61.99;97963.92;2129755;84;20905;-82
2022/09/14 00:44:35;;;;;;;6.78;6.08;;;;;;;22.09;61.54;97957.58;2129783;84;20916;-82
2022/09/14 00:47:35;;;;;;;7.35;6.60;;;;;;;22.17;61.07;97954.08;2129911;84;20958;-83
2022/09/14 00:50:36;;;;;;;9.78;6.35;;;;;;;22.15;60.66;97955.95;2129865;84;21011;-83
2022/09/14 00:53:36;;;;;;;7.87;7.00;;;;;;;22.11;60.27;97957.03;2129773;84;21269;-83
2022/09/14 00:56:36;;;;;;;7.00;6.33;;;;;;;22.07;60.32;97959.45;2129036;84;20976;-81
2022/09/14 00:59:37;;;;;;;9.20;6.97;;;;;;;22.08;60.28;97946.55;2129794;84;20981;-83
2022/09/14 01:02:37;;;;;;;6.97;6.37;;;;;;;22.10;60.69;97949.14;2129406;84;20924;-82
2022/09/14 01:05:37;;;;;;;6.97;6.35;;;;;;;22.14;61.20;97956.89;2129842;84;20944;-81
2022/09/14 01:08:38;;;;;;;7.65;6.85;;;;;;;21.47;57.51;97966.66;2129891;84;20944;-80
2022/09/14 01:11:38;;;;;;;10.68;6.70;;;;;;;20.06;58.72;97964.27;2129267;84;21376;-80
2022/09/14 01:14:39;;;;;;;10.13;6.62;;;;;;;18.99;60.64;97968.70;2129218;83;21037;-79
2022/09/14 01:17:39;;;;;;;9.45;7.05;;;;;;;18.24;62.53;97963.32;2129409;84;20940;-80
2022/09/14 01:20:39;;;;;;;15.08;7.00;;;;;;;17.67;64.23;97968.63;2129302;84;20929;-80
2022/09/14 01:23:40;;;;;;;12.05;8.78;;;;;;;17.26;66.08;97968.02;2129151;84;20993;-80
2022/09/14 01:26:40;;;;;;;18.60;8.43;;;;;;;16.85;67.13;97966.54;2129105;84;20984;-80
2022/09/14 01:29:41;;;;;;;9.98;8.33;;;;;;;16.61;68.69;97975.94;2129218;84;21356;-80
2022/09/14 01:32:41;;;;;;;10.70;7.83;;;;;;;16.35;69.85;97967.34;2129560;84;20924;-80
2022/09/14 01:35:42;;;;;;;8.03;7.33;;;;;;;16.07;70.96;97967.61;2129131;84;20937;-81
2022/09/14 01:38:42;;;;;;;8.63;7.72;;;;;;;15.87;72.20;97968.08;2129419;84;20972;-80
2022/09/14 01:41:42;;;;;;;13.20;7.75;;;;;;;15.70;73.24;97962.34;2129460;84;20992;-80
2022/09/14 01:44:43;;;;;;;8.78;7.35;;;;;;;15.55;73.89;97963.48;2129509;84;20924;-80
2022/09/14 01:47:43;;;;;;;10.20;8.00;;;;;;;15.39;75.14;97960.77;2129492;84;20968;-81
2022/09/14 01:50:44;;;;;;;8.90;8.00;;;;;;;15.25;75.55;97962.38;2129347;84;20964;-80
2022/09/14 01:53:44;;;;;;;11.53;7.55;;;;;;;15.09;76.26;97952.63;2129369;84;20968;-80
2022/09/14 01:56:44;;;;;;;10.28;8.23;;;;;;;14.95;76.50;97945.47;2129116;84;21028;-80
2022/09/14 01:59:45;;;;;;;12.93;8.28;;;;;;;14.84;77.21;97952.70;2129900;84;20953;-80
2022/09/14 02:02:45;;;;;;;9.50;8.35;;;;;;;14.74;77.66;97950.69;2130524;84;20949;-80
2022/09/14 02:05:46;;;;;;;13.50;8.78;;;;;;;14.62;78.56;97939.07;2129464;84;20901;-80
2022/09/14 02:08:46;;;;;;;11.93;8.05;;;;;;;14.52;78.82;97931.81;2129715;84;20921;-81
2022/09/14 02:11:47;;;;;;;11.48;9.38;;;;;;;14.46;79.24;97934.99;2129809;84;20929;-80
2022/09/14 02:14:47;;;;;;;11.08;9.10;;;;;;;14.38;79.63;97925.05;2129455;83;20972;-80
2022/09/14 02:17:47;;;;;;;12.30;8.40;;;;;;;14.30;79.71;97917.30;2130299;84;20968;-80
2022/09/14 02:20:48;;;;;;;8.95;7.80;;;;;;;14.20;79.89;97914.42;2129368;84;21340;-80
2022/09/14 02:23:49;;;;;;;13.38;7.83;;;;;;;14.12;80.39;97912.37;2129267;84;20992;-80
2022/09/14 02:26:49;;;;;;;13.58;9.10;;;;;;;14.01;80.38;97908.17;2129382;84;21020;-80
2022/09/14 02:29:49;;;;;;;;;;;;;;;;;;;;;
2022/09/14 02:32:49;;;;;;;12.15;9.00;;;;;;;13.90;81.57;97919.29;2129396;84;20965;-80
2022/09/14 02:35:50;;;;;;;34.85;10.08;;;;;;;13.84;81.40;97915.87;2129524;84;20921;-81
2022/09/14 02:38:50;;;;;;;13.55;8.80;;;;;;;13.79;81.90;97912.00;2174601;81;20898;-80
2022/09/14 02:41:51;;;;;;;13.15;8.55;;;;;;;13.76;82.14;97911.19;2174575;81;20977;-81
2022/09/14 02:44:51;;;;;;;8.95;8.08;;;;;;;13.67;82.15;97903.02;2174158;81;20933;-80
2022/09/14 02:47:54;;;;;;;10.95;9.10;;;;;;;13.53;82.55;97895.80;2174701;81;20925;-80
2022/09/14 02:50:52;;;;;;;10.90;9.00;;;;;;;13.44;83.42;97889.39;2174042;81;21376;-80
2022/09/14 02:53:52;;;;;;;13.32;8.58;;;;;;;13.43;83.72;97888.52;2174237;81;20968;-80
2022/09/14 02:56:53;;;;;;;11.90;9.48;;;;;;;13.39;83.84;97879.84;2174033;81;21107;-80
2022/09/14 02:59:53;;;;;;;9.50;7.55;;;;;;;13.41;84.43;97879.81;2173450;81;20960;-82
2022/09/14 03:02:53;;;;;;;16.82;8.15;;;;;;;13.43;86.57;97880.66;2172482;81;20964;-82
2022/09/14 03:05:54;;;;;;;16.05;9.33;;;;;;;14.99;97.17;97880.13;2172182;81;20957;-80
2022/09/14 03:08:54;;;;;;;41.08;9.93;;;;;;;16.77;92.78;97873.65;2172966;81;21023;-80
2022/09/14 03:11:55;;;;;;;9.25;6.45;;;;;;;18.12;85.82;97879.17;2172353;81;21352;-81
2022/09/14 03:14:55;;;;;;;7.72;6.30;;;;;;;18.91;81.70;97869.81;2173632;81;20977;-82
2022/09/14 03:17:55;;;;;;;10.18;8.05;;;;;;;19.40;78.08;97867.98;2173929;81;20913;-81
2022/09/14 03:20:56;;;;;;;11.20;8.08;;;;;;;19.90;75.19;97866.45;2173742;81;20993;-81
2022/09/14 03:23:56;;;;;;;10.38;8.20;;;;;;;20.25;72.78;97863.23;2173634;81;20972;-81
2022/09/14 03:26:57;;;;;;;149.35;15.90;;;;;;;20.51;71.04;97862.60;2173393;81;21082;-82
2022/09/14 03:29:57;;;;;;;17.07;10.43;;;;;;;20.68;68.99;97866.23;2173739;81;20970;-82
2022/09/14 03:32:57;;;;;;;16.15;10.00;;;;;;;20.72;66.97;97874.92;2173845;81;20960;-83
2022/09/14 03:35:58;;;;;;;13.50;9.18;;;;;;;20.24;63.19;97878.73;2173577;82;20921;-83
2022/09/14 03:39:00;;;;;;;12.73;8.33;;;;;;;19.67;63.57;97876.66;2173456;81;21001;-82
2022/09/14 03:42:00;;;;;;;10.20;7.25;;;;;;;19.19;63.86;97871.45;2173859;81;20989;-82
2022/09/14 03:45:03;;;;;;;8.50;6.87;;;;;;;18.89;64.65;97861.08;2163189;82;21015;-81
2022/09/14 03:48:04;;;;;;;7.83;7.00;;;;;;;19.18;65.47;97867.95;2173708;81;21357;-83
2022/09/14 03:51:04;;;;;;;18.50;7.60;;;;;;;19.39;64.16;97869.77;2172995;81;21031;-81
2022/09/14 03:54:04;;;;;;;10.63;6.50;;;;;;;18.86;63.35;97876.20;2173955;81;20960;-81
2022/09/14 03:57:06;;;;;;;8.03;7.17;;;;;;;17.73;63.75;97879.58;2171818;81;21012;-81
2022/09/14 04:00:05;;;;;;;8.68;7.78;;;;;;;16.74;65.82;97882.50;2172358;81;21023;-81
2022/09/14 04:03:06;;;;;;;12.30;7.47;;;;;;;16.08;67.87;97881.16;2174453;81;21380;-81
2022/09/14 04:06:06;;;;;;;10.95;8.18;;;;;;;15.53;69.23;97878.03;2174231;81;20974;-81
2022/09/14 04:09:07;;;;;;;8.60;7.80;;;;;;;15.11;71.07;97874.61;2174040;81;21032;-81
2022/09/14 04:12:07;;;;;;;8.03;6.90;;;;;;;14.84;72.58;97883.07;2172390;81;21015;-83
2022/09/14 04:15:07;;;;;;;11.70;8.18;;;;;;;14.73;75.99;97885.02;2173077;81;21629;-83
2022/09/14 04:18:08;;;;;;;11.70;7.97;;;;;;;16.36;79.59;97882.17;2172141;81;20996;-83
2022/09/14 04:21:08;;;;;;;11.30;7.97;;;;;;;17.90;75.88;97876.39;2172025;81;20992;-83
2022/09/14 04:24:09;;;;;;;9.23;7.83;;;;;;;18.83;72.86;97873.66;2171303;81;20957;-83
2022/09/14 04:27:10;;;;;;;9.58;8.55;;;;;;;19.54;70.02;97876.28;2171222;81;20988;-83
2022/09/14 04:30:09;;;;;;;8.58;7.80;;;;;;;20.01;68.09;97866.91;2170985;81;21470;-82
2022/09/14 04:33:10;;;;;;;10.60;7.47;;;;;;;20.21;66.39;97856.34;2171475;81;21004;-83
2022/09/14 04:36:10;;;;;;;18.62;8.88;;;;;;;20.11;65.04;97868.71;2171535;81;20984;-83
2022/09/14 04:39:11;;;;;;;13.68;7.85;;;;;;;19.83;65.09;97872.92;2171659;81;21403;-83
2022/09/14 04:42:11;;;;;;;23.05;8.38;;;;;;;19.51;64.71;97879.02;2171876;81;21028;-80
2022/09/14 04:45:11;;;;;;;9.55;7.47;;;;;;;18.72;64.24;97872.73;2171778;81;21003;-82
2022/09/14 04:48:12;;;;;;;10.23;7.40;;;;;;;18.18;67.22;97885.57;2170908;81;21412;-83
2022/09/14 04:51:12;;;;;;;37.60;8.50;;;;;;;18.47;68.19;97885.92;2170741;81;21040;-82
2022/09/14 04:54:13;;;;;;;13.58;7.00;;;;;;;18.62;67.88;97872.66;2170294;81;20953;-82
2022/09/14 04:57:13;;;;;;;8.63;6.80;;;;;;;18.68;68.06;97875.08;2170153;81;21036;-83
2022/09/14 05:00:13;;;;;;;8.53;6.60;;;;;;;18.81;68.25;97875.05;2170918;81;21031;-83
2022/09/14 05:03:17;;;;;;;14.83;8.63;;;;;;;18.91;68.58;97876.43;2170895;81;21400;-83
2022/09/14 05:06:17;;;;;;;16.52;8.95;;;;;;;19.12;68.79;97877.91;2171158;81;20995;-82
2022/09/14 05:09:18;;;;;;;13.78;8.25;;;;;;;19.27;68.66;97890.09;2171003;81;20983;-83
2022/09/14 05:12:23;;;;;;;10.75;7.33;;;;;;;19.37;69.02;97888.81;2170045;81;20932;-84
2022/09/14 05:15:20;;;;;;;13.90;7.62;;;;;;;19.42;69.58;97880.70;2165979;82;21036;-82
2022/09/14 05:18:21;;;;;;;8.50;7.30;;;;;;;19.41;69.63;97882.48;2178828;81;20960;-81
2022/09/14 05:21:24;;;;;;;11.25;7.45;;;;;;;19.57;69.86;97889.39;2178159;81;20937;-82
2022/09/14 05:24:25;;;;;;;11.70;7.10;;;;;;;19.53;69.41;97889.11;2177985;81;21031;-82
2022/09/14 05:27:25;;;;;;;10.00;7.15;;;;;;;19.59;69.75;97890.20;2176581;82;20971;-83
2022/09/14 05:30:26;;;;;;;18.52;7.75;;;;;;;19.76;70.10;97887.34;2177110;81;21032;-83
2022/09/14 05:33:26;;;;;;;12.10;7.70;;;;;;;19.95;70.18;97885.70;2177299;81;20996;-83
2022/09/14 05:36:26;;;;;;;10.05;6.83;;;;;;;19.99;69.25;97878.03;2178118;81;21416;-83
2022/09/14 05:39:27;;;;;;;11.85;6.92;;;;;;;20.05;67.87;97893.67;2177030;82;20991;-85
2022/09/14 05:42:27;;;;;;;11.18;6.33;;;;;;;19.92;68.87;97888.45;2178248;81;20976;-84
2022/09/14 05:45:28;;;;;;;10.23;6.47;;;;;;;20.08;69.13;97888.70;2178643;81;21938;-84
2022/09/14 05:48:28;;;;;;;9.43;6.42;;;;;;;20.16;68.91;97890.11;2178581;81;20995;-86
2022/09/14 05:51:28;;;;;;;10.88;7.12;;;;;;;20.28;68.71;97886.95;2178227;82;21122;-84
2022/09/14 05:54:31;;;;;;;28.25;8.28;;;;;;;20.23;68.25;97880.98;2161596;82;21016;-84
2022/09/14 05:57:34;;;;;;;15.18;7.42;;;;;;;20.19;68.32;97879.38;2178088;82;20992;-85
2022/09/14 06:00:34;;;;;;;10.68;6.87;;;;;;;20.18;67.74;97879.45;2163287;82;21000;-80
2022/09/14 06:03:37;;;;;;;9.90;7.55;;;;;;;20.04;66.67;97882.67;2179012;81;21183;-83
2022/09/14 06:06:37;;;;;;;16.90;8.93;;;;;;;19.71;66.34;97873.83;2178504;81;20980;-82
2022/09/14 06:09:38;;;;;;;17.67;8.88;;;;;;;19.49;68.80;97872.92;2178158;81;21015;-81
2022/09/14 06:12:39;;;;;;;12.33;7.83;;;;;;;19.57;67.56;97870.00;2186712;81;21459;-80
2022/09/14 06:15:39;;;;;;;13.85;8.50;;;;;;;19.36;68.35;97871.21;2183578;81;21273;-85
2022/09/14 06:18:40;;;;;;;12.30;8.35;;;;;;;19.55;69.59;97880.66;2188974;81;21000;-82
2022/09/14 06:21:40;;;;;;;12.75;8.03;;;;;;;19.85;68.40;97879.02;2188206;81;20936;-83
2022/09/14 06:24:42;;;;;;;12.07;7.30;;;;;;;19.77;66.95;97879.80;2171252;81;21753;-83
2022/09/14 06:27:43;;;;;;;11.10;7.80;;;;;;;19.91;68.55;97888.05;2187432;81;21015;-84
2022/09/14 06:30:43;;;;;;;13.60;8.18;;;;;;;19.85;66.74;97889.62;2187493;81;21070;-83
2022/09/14 06:33:46;;;;;;;10.95;7.65;;;;;;;19.92;68.47;97886.66;2161210;82;21055;-84
2022/09/14 06:36:47;;;;;;;11.33;8.45;;;;;;;20.03;68.43;97890.22;2182958;81;21055;-83
2022/09/14 06:39:47;;;;;;;11.12;8.38;;;;;;;20.25;68.18;97895.03;2187854;81;20987;-76
2022/09/14 06:42:47;;;;;;;10.82;8.55;;;;;;;20.02;65.95;97898.63;2187778;81;21003;-85
2022/09/14 06:45:47;;;;;;;12.85;8.88;;;;;;;19.77;67.58;97906.27;2188663;81;20980;-84
2022/09/14 06:48:48;;;;;;;8.23;7.35;;;;;;;19.71;68.41;97910.89;2187716;81;20979;-84
2022/09/14 06:51:49;;;;;;;10.55;9.43;;;;;;;19.79;68.37;97914.55;2187822;81;21058;-82
2022/09/14 06:54:49;;;;;;;11.38;8.53;;;;;;;19.33;67.77;97908.38;2189649;81;21007;-83
2022/09/14 06:57:49;;;;;;;13.53;8.20;;;;;;;19.23;68.45;97910.11;2188489;81;20944;-86
2022/09/14 07:00:49;;;;;;;13.65;8.80;;;;;;;19.54;70.32;97916.44;2187918;81;21018;-84
2022/09/14 07:03:51;;;;;;;8.68;7.78;;;;;;;19.75;67.89;97917.39;2186905;81;21007;-83
2022/09/14 07:06:50;;;;;;;13.55;8.35;;;;;;;19.58;68.22;97909.65;2186828;81;21090;-84
2022/09/14 07:09:51;;;;;;;13.05;8.10;;;;;;;19.64;68.45;97905.44;2186572;81;20968;-83
2022/09/14 07:12:51;;;;;;;8.60;7.65;;;;;;;19.59;69.21;97911.84;2186657;81;20928;-83
2022/09/14 07:15:51;;;;;;;12.65;8.08;;;;;;;19.89;68.69;97919.89;2178895;81;21061;-82
2022/09/14 07:18:52;;;;;;;9.20;8.38;;;;;;;19.92;69.15;97925.52;2170822;81;20972;-84
2022/09/14 07:21:53;;;;;;;11.33;9.38;;;;;;;20.01;68.76;97918.09;2170555;81;20996;-84
2022/09/14 07:24:53;;;;;;;11.97;8.85;;;;;;;20.08;69.43;97922.69;2170616;81;21068;-83
2022/09/14 07:27:53;;;;;;;14.23;9.90;;;;;;;20.11;68.21;97923.02;2170961;81;21006;-83
2022/09/14 07:30:54;;;;;;;9.33;8.23;;;;;;;19.99;69.24;97923.92;2171155;81;20973;-84
2022/09/14 07:33:54;;;;;;;14.35;8.53;;;;;;;19.97;69.01;97926.23;2171399;81;20960;-82
2022/09/14 07:36:54;;;;;;;10.88;7.95;;;;;;;19.98;69.81;97922.66;2171219;81;20965;-83
2022/09/14 07:39:56;;;;;;;14.53;8.15;;;;;;;20.13;70.07;97924.69;2171572;81;21036;-84
2022/09/14 07:42:55;;;;;;;10.63;8.53;;;;;;;20.35;69.36;97921.54;2172541;81;21679;-84
2022/09/14 07:45:55;;;;;;;8.75;7.85;;;;;;;20.48;69.80;97919.27;2172551;81;21024;-83
2022/09/14 07:48:56;;;;;;;14.43;8.53;;;;;;;20.59;67.94;97919.67;2173753;81;20972;-84
2022/09/14 07:51:56;;;;;;;16.50;8.23;;;;;;;20.22;67.28;97915.49;2172543;81;20979;-83
2022/09/14 07:54:57;;;;;;;10.30;7.50;;;;;;;19.97;70.44;97907.23;2171187;81;21031;-84
2022/09/14 07:57:58;;;;;;;12.85;8.98;;;;;;;20.18;69.96;97913.43;2172035;81;21514;-85
2022/09/14 08:00:58;;;;;;;8.98;8.08;;;;;;;20.41;69.46;97912.50;2171388;81;21003;-84
2022/09/14 08:03:58;;;;;;;13.40;7.78;;;;;;;20.40;69.37;97903.29;2172145;81;20999;-85
2022/09/14 08:06:59;;;;;;;12.47;7.35;;;;;;;20.48;69.04;97903.83;2171668;81;20961;-84
2022/09/14 08:09:59;;;;;;;11.88;7.55;;;;;;;20.65;70.25;97899.52;2171060;81;21224;-84
2022/09/14 08:12:59;;;;;;;13.38;8.40;;;;;;;20.74;67.51;97905.34;2171172;81;20975;-84
2022/09/14 08:16:00;;;;;;;14.45;7.10;;;;;;;20.59;68.55;97902.90;2171055;81;21061;-83
2022/09/14 08:19:00;;;;;;;10.13;9.23;;;;;;;20.96;69.60;97904.36;2170648;81;21032;-84
2022/09/14 08:22:00;;;;;;;13.25;8.08;;;;;;;21.10;66.71;97906.39;2169990;81;20988;-82
2022/09/14 08:25:01;;;;;;;12.75;8.78;;;;;;;20.93;67.78;97904.96;2169650;81;21286;-83
2022/09/14 08:28:01;;;;;;;11.03;7.08;;;;;;;21.03;67.31;97907.59;2169992;81;21395;-83
2022/09/14 08:31:02;;;;;;;11.70;10.58;;;;;;;21.22;66.66;97903.64;2170030;82;21055;-84
2022/09/14 08:34:02;;;;;;;8.48;6.90;;;;;;;21.29;65.91;97897.16;2169497;81;20996;-84
2022/09/14 08:37:03;;;;;;;6.67;5.78;;;;;;;21.33;65.68;97897.41;2169637;81;20996;-85
2022/09/14 08:40:03;;;;;;;11.65;7.00;;;;;;;21.25;65.08;97900.88;2169573;81;21018;-85
2022/09/14 08:43:03;;;;;;;20.48;9.13;;;;;;;21.22;67.34;97899.66;2170171;81;20949;-83
2022/09/14 08:46:04;;;;;;;17.23;15.40;;;;;;;21.32;66.23;97895.69;2169860;81;20960;-85
2022/09/14 08:49:04;;;;;;;8.15;5.53;;;;;;;21.35;64.55;97899.98;2169802;81;21090;-83
2022/09/14 08:52:05;;;;;;;8.18;5.72;;;;;;;21.11;64.79;97896.17;2169977;81;20980;-84
2022/09/14 08:55:05;;;;;;;12.73;11.45;;;;;;;21.29;65.05;97894.50;2170309;81;21015;-84
2022/09/14 08:58:05;;;;;;;13.25;6.83;;;;;;;21.46;64.50;97898.56;2171181;81;20997;-81
2022/09/14 09:01:06;;;;;;;7.28;5.40;;;;;;;21.38;64.28;97899.38;2172931;81;21506;-82
2022/09/14 09:04:06;;;;;;;13.90;5.72;;;;;;;20.95;64.30;97905.29;2171706;81;21031;-84
2022/09/14 09:07:07;;;;;;;9.75;4.53;;;;;;;21.03;64.70;97902.75;2172043;81;20997;-84
2022/09/14 09:10:07;;;;;;;9.13;4.03;;;;;;;20.96;63.55;97900.38;2171217;82;21107;-85
2022/09/14 09:13:08;;;;;;;4.80;4.30;;;;;;;20.88;64.81;97899.86;2170745;81;21074;-84
2022/09/14 09:16:12;;;;;;;5.97;4.00;;;;;;;21.19;64.51;97907.77;2159760;82;21502;-83
2022/09/14 09:19:15;;;;;;;5.65;3.95;;;;;;;21.11;64.16;97896.64;2163754;82;21486;-79
2022/09/14 09:22:15;;;;;;;4.30;3.45;;;;;;;21.32;64.87;97894.36;2169834;81;20980;-84
2022/09/14 09:25:15;;;;;;;9.75;7.45;;;;;;;21.47;62.27;97899.42;2169925;82;21032;-83
2022/09/14 09:28:16;;;;;;;16.20;13.78;;;;;;;21.52;63.45;97898.73;2169620;81;21382;-84
2022/09/14 09:31:16;;;;;;;9.05;6.35;;;;;;;21.88;63.21;97893.48;2170374;81;21024;-84
2022/09/14 09:34:16;;;;;;;7.83;4.00;;;;;;;21.88;61.81;97893.48;2170268;81;20973;-84
2022/09/14 09:37:17;;;;;;;15.85;4.20;;;;;;;22.03;61.48;97896.76;2170035;81;21000;-85
2022/09/14 09:40:17;;;;;;;10.32;9.25;;;;;;;22.11;60.34;97891.92;2170388;81;20995;-84
2022/09/14 09:43:23;;;;;;;8.18;3.47;;;;;;;22.41;60.61;97889.52;2169835;81;21051;-85
2022/09/14 09:46:26;;;;;;;4.55;3.47;;;;;;;22.67;60.13;97892.20;2163520;82;21024;-85
2022/09/14 09:49:26;;;;;;;6.85;3.95;;;;;;;22.37;57.40;97900.39;2163443;82;21047;-84
2022/09/14 09:52:26;;;;;;;5.28;3.60;;;;;;;22.18;58.43;97888.49;2169947;81;20968;-85
2022/09/14 09:55:27;;;;;;;7.70;2.90;;;;;;;22.43;58.99;97884.98;2169269;81;21040;-84
2022/09/14 09:58:27;;;;;;;8.33;3.27;;;;;;;22.47;55.92;97897.19;2170020;81;20992;-84
2022/09/14 10:01:27;;;;;;;5.87;3.15;;;;;;;22.41;55.69;97894.84;2170238;81;21000;-83
2022/09/14 10:04:32;;;;;;;6.47;3.02;;;;;;;21.94;56.83;97892.72;2170926;81;21441;-84
2022/09/14 10:07:32;;;;;;;7.87;3.60;;;;;;;21.69;56.23;97891.33;2164346;82;20964;-84
2022/09/14 10:10:32;;;;;;;9.80;3.90;;;;;;;21.76;57.40;97896.74;2165449;82;21684;-86
2022/09/14 10:13:36;;;;;;;5.40;2.90;;;;;;;21.63;56.96;97904.41;2170866;81;20976;-85
2022/09/14 10:16:36;;;;;;;8.05;3.12;;;;;;;21.77;56.61;97891.82;2170513;81;21075;-85
2022/09/14 10:19:39;;;;;;;13.53;4.03;;;;;;;21.67;57.36;97894.02;2170544;81;21048;-84
2022/09/14 10:22:40;;;;;;;6.33;3.05;;;;;;;21.55;56.62;97896.80;2164153;82;20945;-85
2022/09/14 10:25:44;;;;;;;10.35;6.67;;;;;;;21.43;57.29;97897.37;2113955;84;21024;-84
2022/09/14 10:28:51;;;;;;;11.50;7.47;;;;;;;21.59;56.76;97897.05;2169548;82;21405;-84
2022/09/14 10:31:53;;;;;;;26.25;13.80;;;;;;;21.88;55.96;97898.34;2154184;83;21052;-85
2022/09/14 10:34:54;;;;;;;67.82;46.18;;;;;;;22.11;55.50;97899.03;2168022;82;20953;-84
2022/09/14 10:37:57;;;;;;;10.15;5.55;;;;;;;22.22;55.51;97897.56;2171366;81;21373;-84
2022/09/14 10:40:58;;;;;;;;;;;;;;;22.21;54.94;97894.98;2175063;82;20914;-83
2022/09/14 10:44:01;;;;;;;8.23;6.53;;;;;;;22.35;55.00;97883.66;2171759;81;20156;-84
2022/09/14 10:47:02;;;;;;;18.75;12.13;;;;;;;22.54;53.55;97885.77;2171371;81;20968;-84
2022/09/14 10:50:02;;;;;;;13.53;7.22;;;;;;;22.54;53.55;97885.77;2171276;81;21016;-85
2022/09/14 10:53:04;;;;;;;6.78;3.55;;;;;;;22.61;53.66;97884.54;2172141;81;20945;-84
2022/09/14 10:56:04;;;;;;;13.80;8.00;;;;;;;22.50;53.65;97885.53;2172014;81;20953;-85
2022/09/14 10:59:06;;;;;;;6.60;3.30;;;;;;;22.38;53.82;97884.36;2115292;84;21007;-82
2022/09/14 11:02:07;;;;;;;3.90;3.12;;;;;;;22.31;53.94;97879.44;2170444;82;20965;-81
2022/09/14 11:05:13;;;;;;;71.12;44.38;;;;;;;22.32;54.46;97885.14;2171219;82;21006;-87
2022/09/14 11:08:14;;;;;;;182.20;108.78;;;;;;;22.54;54.62;97877.78;2166274;82;20981;-84
2022/09/14 11:11:14;;;;;;;5.37;2.75;;;;;;;22.62;53.89;97880.94;2171367;81;21003;-84
2022/09/14 11:14:15;;;;;;;57.23;34.10;;;;;;;22.52;52.75;97879.20;2171704;81;20992;-81
2022/09/14 11:17:15;;;;;;;17.25;7.70;;;;;;;22.30;54.57;97869.73;2182045;81;21083;-84
2022/09/14 11:20:17;;;;;;;32.58;18.50;;;;;;;22.37;54.20;97875.13;2187554;81;21090;-84
2022/09/14 11:23:19;;;;;;;88.27;54.83;;;;;;;22.37;53.89;97861.84;2172495;81;20999;-82
2022/09/14 11:26:20;;;;;;;5.40;3.02;;;;;;;22.54;53.94;97863.16;2186455;81;21000;-84
2022/09/14 11:29:20;;;;;;;35.52;21.87;;;;;;;22.28;54.47;97866.30;2187203;81;21031;-83
2022/09/14 11:32:21;;;;;;;67.62;37.78;;;;;;;22.38;55.75;97865.75;2187166;81;20917;-82
2022/09/14 11:35:22;;;;;;;68.00;41.63;;;;;;;22.87;54.75;97855.27;2187096;81;21037;-85
2022/09/14 11:38:22;;;;;;;17.12;11.28;;;;;;;23.01;53.38;97856.72;2187210;81;20921;-83
2022/09/14 11:41:23;;;;;;;7.80;4.45;;;;;;;22.94;52.94;97850.02;2187021;81;21019;-85
2022/09/14 11:44:23;;;;;;;57.58;30.62;;;;;;;22.61;53.88;97850.44;2187106;81;21019;-81
2022/09/14 11:47:24;;;;;;;33.33;17.80;;;;;;;22.98;54.25;97848.05;2186835;81;21490;-82
2022/09/14 11:50:24;;;;;;;41.90;20.05;;;;;;;23.04;54.15;97852.56;2186897;81;21058;-84
2022/09/14 11:53:25;;;;;;;15.48;9.25;;;;;;;23.27;53.53;97849.98;2187952;81;20984;-84
2022/09/14 11:56:25;;;;;;;19.52;11.88;;;;;;;23.18;52.46;97847.34;2187969;81;21035;-85
2022/09/14 11:59:26;;;;;;;27.90;15.78;;;;;;;22.75;53.49;97846.11;2187918;81;21418;-84
2022/09/14 12:02:29;;;;;;;67.70;34.30;;;;;;;22.71;53.80;97841.89;2188114;81;20991;-83
2022/09/14 12:05:30;;;;;;;83.80;28.07;;;;;;;22.76;54.55;97842.98;2188173;81;20963;-82
2022/09/14 12:08:30;;;;;;;92.78;44.30;;;;;;;22.92;54.78;97825.75;2187457;81;20979;-85
2022/09/14 12:11:30;;;;;;;21.05;11.12;;;;;;;23.19;54.13;97833.57;2187402;81;21007;-82
2022/09/14 12:14:31;;;;;;;27.55;15.23;;;;;;;23.28;53.42;97829.06;2187165;81;21434;-84
2022/09/14 12:17:32;;;;;;;64.62;32.83;;;;;;;23.10;53.36;97835.41;2186797;81;21040;-83
2022/09/14 12:20:31;;;;;;;85.55;42.15;;;;;;;23.01;53.88;97830.58;2187396;81;21066;-84
2022/09/14 12:23:32;;;;;;;18.45;11.20;;;;;;;23.25;53.94;97829.70;2186846;81;21683;-82
2022/09/14 12:26:32;;;;;;;10.30;6.50;;;;;;;23.35;53.43;97829.59;2187053;81;21331;-83
2022/09/14 12:29:33;;;;;;;4.42;3.10;;;;;;;23.46;52.70;97824.55;2187651;81;21031;-82
2022/09/14 12:32:33;;;;;;;93.33;48.95;;;;;;;23.14;51.87;97827.64;2187564;81;20984;-83
2022/09/14 12:35:33;;;;;;;7.40;4.20;;;;;;;23.20;53.00;97837.48;2187525;81;21182;-84
2022/09/14 12:38:37;;;;;;;9.30;4.80;;;;;;;23.08;52.99;97837.29;2187283;81;21272;-83
2022/09/14 12:41:38;;;;;;;;;;;;;;;22.79;53.78;97829.52;2190652;81;20987;-85
2022/09/14 12:44:38;;;;;;;27.93;17.02;;;;;;;22.96;54.25;97825.51;2187976;81;20132;-85
2022/09/14 12:47:38;;;;;;;22.77;13.00;;;;;;;23.08;54.70;97827.50;2188237;81;20960;-84
2022/09/14 12:50:39;;;;;;;10.55;4.28;;;;;;;23.02;53.81;97829.64;2186994;81;21019;-82
2022/09/14 12:53:39;;;;;;;10.23;6.10;;;;;;;22.46;54.33;97822.81;2188716;81;20971;-79
2022/09/14 12:56:40;;;;;;;35.60;20.12;;;;;;;22.23;55.19;97820.87;2187466;81;21018;-84
2022/09/14 12:59:40;;;;;;;17.40;11.08;;;;;;;22.30;56.37;97818.76;2188107;81;21054;-85
2022/09/14 13:02:40;;;;;;;18.37;8.50;;;;;;;22.36;56.50;97816.25;2187742;81;20972;-83
2022/09/14 13:05:41;;;;;;;22.45;6.45;;;;;;;22.28;56.27;97807.34;2187456;81;21290;-84
2022/09/14 13:08:41;;;;;;;14.53;6.92;;;;;;;22.38;56.55;97806.39;2187728;81;21679;-81
2022/09/14 13:11:42;;;;;;;7.08;3.80;;;;;;;22.46;56.64;97805.06;2187799;81;21708;-83
2022/09/14 13:14:42;;;;;;;8.68;4.95;;;;;;;22.18;55.64;97809.62;2188491;81;20991;-82
2022/09/14 13:17:43;;;;;;;6.42;4.17;;;;;;;21.82;56.71;97803.47;2188709;81;20988;-83
2022/09/14 13:20:43;;;;;;;5.83;4.17;;;;;;;21.53;57.04;97798.23;2187420;81;21773;-82
2022/09/14 13:23:43;;;;;;;9.70;4.33;;;;;;;21.43;58.08;97800.48;2187562;81;21368;-83
2022/09/14 13:26:44;;;;;;;9.28;4.40;;;;;;;21.35;58.22;97799.98;2187517;81;20979;-83
2022/09/14 13:29:44;;;;;;;10.32;3.90;;;;;;;21.29;58.91;97792.31;2187011;81;20991;-78
2022/09/14 13:32:45;;;;;;;5.97;3.95;;;;;;;21.31;58.88;97793.11;2185346;81;20932;-83
2022/09/14 13:35:45;;;;;;;9.60;4.55;;;;;;;21.13;58.88;97803.23;2187330;81;21359;-83
2022/09/14 13:38:45;;;;;;;10.88;4.97;;;;;;;20.90;59.43;97789.25;2186991;81;21021;-84
2022/09/14 13:41:46;;;;;;;9.85;4.40;;;;;;;20.85;59.82;97789.92;2188319;81;20967;-82
2022/09/14 13:44:48;;;;;;;8.03;4.20;;;;;;;20.90;60.06;97790.58;2188213;81;21381;-82
2022/09/14 13:47:47;;;;;;;3.95;3.55;;;;;;;20.83;60.05;97787.81;2188304;81;21003;-84
2022/09/14 13:50:47;;;;;;;4.58;4.10;;;;;;;20.75;60.11;97780.64;2188236;81;21082;-84
2022/09/14 13:53:48;;;;;;;5.47;4.30;;;;;;;20.82;60.41;97786.09;2188698;81;20972;-84
2022/09/14 13:56:48;;;;;;;8.85;4.37;;;;;;;21.01;60.33;97773.30;2188697;81;20940;-82
2022/09/14 13:59:48;;;;;;;8.53;4.97;;;;;;;21.18;59.93;97769.38;2187788;81;21371;-84
2022/09/14 14:02:49;;;;;;;5.45;4.00;;;;;;;21.08;60.23;97766.30;2187797;81;21014;-82
2022/09/14 14:05:49;;;;;;;8.68;5.47;;;;;;;21.22;60.18;97767.86;2186757;81;21000;-81